createdAt,value
2022-08-22T00:00:17.098Z,39.60
2022-08-22T00:02:55.263Z,40.10
2022-08-22T00:03:17.767Z,39.40
2022-08-22T00:05:54.845Z,39.40
2022-08-22T00:08:36.032Z,40.20
2022-08-22T00:11:22.092Z,41.60
2022-08-22T00:14:01.545Z,43.50
2022-08-22T00:16:37.506Z,44.30
2022-08-22T00:19:43.040Z,44.30
2022-08-22T00:22:25.367Z,44.60
2022-08-22T00:25:02.980Z,44.20
2022-08-22T00:27:38.029Z,43.60
2022-08-22T00:30:16.628Z,44.10
2022-08-22T00:32:50.806Z,45.10
2022-08-22T00:35:21.484Z,45.40
2022-08-22T00:38:03.192Z,45.60
2022-08-22T00:41:00.732Z,47.00
2022-08-22T00:43:49.049Z,47.70
2022-08-22T00:46:37.036Z,47.70
2022-08-22T00:49:22.589Z,44.60
2022-08-22T00:51:58.645Z,43.20
2022-08-22T00:54:54.748Z,42.70
2022-08-22T00:57:46.492Z,42.20
2022-08-22T01:00:24.197Z,42.40
2022-08-22T01:03:12.161Z,43.50
2022-08-22T01:05:44.896Z,42.20
2022-08-22T01:08:39.470Z,42.10
2022-08-22T01:11:09.346Z,41.90
2022-08-22T01:14:00.296Z,41.80
2022-08-22T01:16:59.190Z,42.00
2022-08-22T01:19:44.636Z,41.60
2022-08-22T01:22:49.163Z,41.50
2022-08-22T01:25:26.046Z,41.60
2022-08-22T01:28:16.537Z,41.90
2022-08-22T01:31:02.153Z,42.20
2022-08-22T01:33:47.976Z,42.20
2022-08-22T01:36:45.508Z,42.00
2022-08-22T01:39:30.562Z,41.90
2022-08-22T01:42:03.144Z,41.70
2022-08-22T01:44:41.944Z,41.80
2022-08-22T01:47:20.601Z,42.20
2022-08-22T01:49:58.327Z,42.20
2022-08-22T01:52:46.183Z,42.00
2022-08-22T01:55:21.062Z,42.10
2022-08-22T01:57:56.895Z,42.10
2022-08-22T02:01:25.649Z,42.30
2022-08-22T02:04:01.673Z,42.40
2022-08-22T02:06:34.424Z,42.40
2022-08-22T02:09:04.423Z,42.60
2022-08-22T02:12:22.011Z,42.80
2022-08-22T02:15:06.744Z,42.80
2022-08-22T02:18:05.325Z,42.90
2022-08-22T02:20:52.889Z,42.70
2022-08-22T02:23:44.053Z,42.90
2022-08-22T02:26:28.118Z,43.00
2022-08-22T02:29:21.262Z,43.10
2022-08-22T02:32:17.076Z,42.90
2022-08-22T02:34:58.278Z,42.40
2022-08-22T02:37:46.916Z,42.60
2022-08-22T02:40:27.531Z,42.50
2022-08-22T02:43:10.019Z,42.40
2022-08-22T02:45:46.605Z,42.50
2022-08-22T02:48:29.899Z,42.50
2022-08-22T02:51:07.754Z,42.30
2022-08-22T02:53:46.277Z,42.30
2022-08-22T02:56:31.854Z,42.10
2022-08-22T02:59:27.553Z,41.80
2022-08-22T03:01:55.782Z,41.80
2022-08-22T03:04:46.725Z,41.70
2022-08-22T03:07:31.994Z,42.10
2022-08-22T03:10:30.155Z,42.20
2022-08-22T03:13:08.559Z,42.50
2022-08-22T03:15:48.467Z,42.80
2022-08-22T03:18:26.752Z,42.70
2022-08-22T03:21:09.479Z,42.80
2022-08-22T03:23:50.839Z,42.70
2022-08-22T03:26:32.551Z,42.60
2022-08-22T03:29:11.747Z,42.50
2022-08-22T03:32:09.763Z,42.80
2022-08-22T03:34:38.197Z,42.70
2022-08-22T03:37:43.192Z,42.90
2022-08-22T03:40:43.467Z,43.00
2022-08-22T03:43:37.555Z,43.10
2022-08-22T03:46:33.903Z,43.00
2022-08-22T03:49:37.793Z,43.50
2022-08-22T03:53:12.153Z,43.70
2022-08-22T03:56:22.497Z,43.50
2022-08-22T03:59:09.924Z,43.50
2022-08-22T04:02:42.486Z,43.70
2022-08-22T04:05:00.749Z,44.10
2022-08-22T04:07:51.499Z,44.30
2022-08-22T04:10:57.216Z,44.30
2022-08-22T04:13:52.838Z,45.50
2022-08-22T04:16:31.398Z,46.00
2022-08-22T04:19:10.066Z,46.40
2022-08-22T04:22:16.679Z,46.20
2022-08-22T04:25:08.183Z,46.60
2022-08-22T04:28:02.303Z,46.80
2022-08-22T04:30:57.473Z,46.80
2022-08-22T04:34:22.421Z,47.40
2022-08-22T04:37:04.321Z,47.30
2022-08-22T04:39:41.925Z,49.80
2022-08-22T04:42:36.908Z,51.10
2022-08-22T04:45:09.876Z,52.10
2022-08-22T04:48:05.367Z,54.20
2022-08-22T04:50:43.665Z,55.30
2022-08-22T04:53:48.244Z,55.70
2022-08-22T04:56:27.393Z,55.90
2022-08-22T04:59:00.351Z,56.50
2022-08-22T05:01:54.495Z,57.50
2022-08-22T05:04:31.396Z,57.80
2022-08-22T05:07:12.579Z,58.40
2022-08-22T05:09:44.112Z,57.90
2022-08-22T05:12:18.360Z,58.60
2022-08-22T05:14:51.322Z,58.80
2022-08-22T05:17:26.078Z,59.20
2022-08-22T05:19:57.201Z,59.50
2022-08-22T05:22:34.054Z,60.40
2022-08-22T05:25:05.540Z,60.80
2022-08-22T05:27:39.166Z,60.60
2022-08-22T05:30:13.533Z,61.00
2022-08-22T05:33:12.454Z,61.00
2022-08-22T05:36:09.040Z,61.00
2022-08-22T05:38:41.929Z,61.20
2022-08-22T05:41:13.409Z,61.10
2022-08-22T05:43:43.411Z,60.30
2022-08-22T05:46:27.001Z,60.00
2022-08-22T05:49:00.414Z,60.10
2022-08-22T05:51:38.183Z,60.10
2022-08-22T05:54:14.510Z,60.00
2022-08-22T05:56:49.490Z,59.70
2022-08-22T05:59:30.659Z,59.40
2022-08-22T06:02:09.619Z,59.50
2022-08-22T06:04:54.110Z,59.20
2022-08-22T06:07:25.927Z,59.10
2022-08-22T06:10:11.684Z,60.60
2022-08-22T06:12:51.028Z,61.80
2022-08-22T06:15:30.553Z,62.30
2022-08-22T06:18:05.163Z,62.40
2022-08-22T06:20:47.941Z,62.30
2022-08-22T06:23:19.485Z,62.80
2022-08-22T06:25:48.868Z,62.70
2022-08-22T06:28:23.223Z,62.00
2022-08-22T06:30:54.301Z,61.60
2022-08-22T06:33:27.575Z,61.40
2022-08-22T06:36:28.934Z,61.50
2022-08-22T06:39:00.378Z,62.10
2022-08-22T06:41:30.791Z,61.50
2022-08-22T06:44:00.007Z,60.80
2022-08-22T06:46:29.676Z,60.00
2022-08-22T06:49:00.317Z,57.00
2022-08-22T06:51:29.175Z,55.40
2022-08-22T06:54:02.262Z,54.60
2022-08-22T06:56:50.997Z,53.00
2022-08-22T06:59:23.290Z,52.00
2022-08-22T07:02:16.477Z,51.10
2022-08-22T07:04:43.927Z,50.50
2022-08-22T07:07:10.983Z,50.80
2022-08-22T07:09:40.588Z,50.60
2022-08-22T07:12:20.827Z,50.50
2022-08-22T07:14:51.936Z,50.00
2022-08-22T07:17:23.507Z,49.60
2022-08-22T07:20:28.546Z,49.70
2022-08-22T07:23:04.400Z,49.00
2022-08-22T07:25:34.193Z,48.30
2022-08-22T07:28:36.476Z,47.60
2022-08-22T07:31:30.922Z,47.30
2022-08-22T07:34:13.729Z,47.00
2022-08-22T07:37:13.087Z,46.40
2022-08-22T07:40:09.373Z,46.60
2022-08-22T07:42:42.833Z,45.90
2022-08-22T07:45:18.036Z,45.80
2022-08-22T07:47:49.200Z,45.10
2022-08-22T07:50:28.488Z,45.40
2022-08-22T07:53:00.292Z,44.70
2022-08-22T07:55:28.759Z,44.50
2022-08-22T07:58:03.952Z,42.60
2022-08-22T08:00:32.660Z,42.20
2022-08-22T08:03:03.677Z,43.10
2022-08-22T08:05:34.590Z,43.10
2022-08-22T08:08:08.440Z,42.20
2022-08-22T08:10:41.277Z,42.10
2022-08-22T08:13:13.677Z,42.20
2022-08-22T08:15:44.971Z,41.20
2022-08-22T08:18:19.306Z,41.30
2022-08-22T08:21:09.340Z,41.50
2022-08-22T08:23:40.363Z,40.80
2022-08-22T08:26:16.029Z,41.40
2022-08-22T08:28:48.321Z,42.10
2022-08-22T08:31:43.047Z,42.50
2022-08-22T08:34:22.353Z,42.00
2022-08-22T08:37:02.542Z,42.30
2022-08-22T08:39:35.017Z,42.90
2022-08-22T08:42:07.982Z,42.60
2022-08-22T08:44:40.678Z,42.70
2022-08-22T08:47:22.368Z,42.80
2022-08-22T08:50:06.542Z,43.00
2022-08-22T08:52:40.497Z,42.40
2022-08-22T08:55:22.006Z,42.90
2022-08-22T08:58:34.895Z,43.90
2022-08-22T09:01:28.924Z,43.70
2022-08-22T09:04:23.566Z,43.40
2022-08-22T09:07:16.765Z,43.20
2022-08-22T09:10:06.029Z,42.30
2022-08-22T09:13:11.131Z,43.30
2022-08-22T09:16:04.556Z,42.80
2022-08-22T09:18:35.298Z,42.60
2022-08-22T09:21:30.829Z,41.80
2022-08-22T09:24:20.083Z,42.40
2022-08-22T09:27:02.229Z,42.70
2022-08-22T09:29:51.387Z,42.50
2022-08-22T09:32:34.509Z,40.70
2022-08-22T09:35:32.203Z,41.10
2022-08-22T09:38:29.594Z,41.10
2022-08-22T09:41:08.699Z,40.90
2022-08-22T09:43:49.199Z,39.80
2022-08-22T09:46:19.756Z,39.20
2022-08-22T09:49:01.766Z,39.50
2022-08-22T09:51:55.665Z,39.40
2022-08-22T09:55:04.261Z,39.10
2022-08-22T09:57:47.662Z,39.10
2022-08-22T10:00:26.955Z,38.20
2022-08-22T10:03:06.621Z,38.40
2022-08-22T10:05:57.551Z,38.40
2022-08-22T10:09:10.241Z,38.20
2022-08-22T10:12:00.722Z,37.40
2022-08-22T10:14:50.508Z,37.30
2022-08-22T10:17:30.659Z,36.90
2022-08-22T10:20:21.303Z,37.20
2022-08-22T10:22:57.592Z,36.40
2022-08-22T10:25:50.033Z,36.30
2022-08-22T10:28:22.352Z,36.30
2022-08-22T10:31:08.378Z,35.50
2022-08-22T10:34:11.240Z,35.10
2022-08-22T10:37:04.396Z,36.10
2022-08-22T10:39:47.696Z,34.90
2022-08-22T10:42:42.052Z,34.20
2022-08-22T10:45:23.635Z,34.60
2022-08-22T10:47:50.924Z,34.30
2022-08-22T10:50:31.034Z,34.80
2022-08-22T10:53:35.838Z,34.00
2022-08-22T10:57:03.835Z,33.20
2022-08-22T10:59:54.828Z,33.80
2022-08-22T11:02:45.848Z,34.10
2022-08-22T11:05:32.649Z,34.20
2022-08-22T11:08:06.594Z,34.20
2022-08-22T11:10:58.753Z,35.50
2022-08-22T11:13:49.639Z,33.50
2022-08-22T11:16:55.114Z,32.30
2022-08-22T11:19:41.296Z,32.40
2022-08-22T11:22:20.310Z,32.50
2022-08-22T11:25:15.489Z,31.80
2022-08-22T11:28:14.872Z,30.90
2022-08-22T11:31:07.259Z,31.80
2022-08-22T11:33:59.340Z,30.60
2022-08-22T11:36:46.506Z,31.40
2022-08-22T11:39:27.642Z,29.90
2022-08-22T11:41:54.579Z,29.90
2022-08-22T11:44:50.348Z,29.20
2022-08-22T11:47:26.568Z,29.00
2022-08-22T11:50:10.719Z,28.20
2022-08-22T11:53:18.993Z,28.20
2022-08-22T11:56:05.602Z,28.30
2022-08-22T11:58:32.551Z,28.10
2022-08-22T12:01:05.323Z,28.70
2022-08-22T12:03:58.110Z,28.20
2022-08-22T12:06:42.359Z,28.50
2022-08-22T12:09:15.687Z,27.90
2022-08-22T12:12:15.542Z,28.90
2022-08-22T12:14:50.922Z,28.70
2022-08-22T12:17:55.250Z,28.40
2022-08-22T12:20:46.842Z,29.90
2022-08-22T12:23:48.546Z,28.20
2022-08-22T12:26:41.162Z,27.70
2022-08-22T12:29:33.667Z,27.70
2022-08-22T12:32:10.253Z,27.50
2022-08-22T12:34:57.723Z,28.80
2022-08-22T12:37:54.562Z,28.30
2022-08-22T12:40:28.261Z,28.80
2022-08-22T12:43:18.891Z,27.80
2022-08-22T12:45:50.875Z,27.60
2022-08-22T12:48:36.824Z,28.70
2022-08-22T12:51:17.660Z,30.00
2022-08-22T12:54:01.533Z,29.70
2022-08-22T12:56:47.420Z,29.40
2022-08-22T12:59:24.908Z,28.70
2022-08-22T13:01:59.547Z,28.60
2022-08-22T13:04:34.240Z,28.70
2022-08-22T13:07:25.427Z,29.10
2022-08-22T13:09:58.747Z,30.00
2022-08-22T13:12:44.042Z,29.60
2022-08-22T13:15:26.175Z,30.80
2022-08-22T13:17:54.693Z,41.60
2022-08-22T13:20:28.952Z,52.20
2022-08-22T13:22:56.819Z,55.20
2022-08-22T13:25:29.929Z,52.70
2022-08-22T13:28:02.382Z,53.20
2022-08-22T13:30:38.889Z,58.40
2022-08-22T13:33:09.597Z,57.30
2022-08-22T13:35:53.533Z,48.50
2022-08-22T13:38:28.351Z,48.40
2022-08-22T13:40:59.919Z,46.70
2022-08-22T13:44:08.867Z,43.60
2022-08-22T13:46:52.828Z,37.80
2022-08-22T13:49:41.366Z,39.50
2022-08-22T13:52:29.384Z,38.90
2022-08-22T13:55:03.473Z,38.00
2022-08-22T13:57:42.171Z,36.50
2022-08-22T14:00:29.248Z,35.80
2022-08-22T14:03:05.468Z,34.40
2022-08-22T14:05:41.949Z,34.20
2022-08-22T14:08:13.483Z,34.80
2022-08-22T14:10:55.028Z,34.30
2022-08-22T14:13:59.886Z,33.80
2022-08-22T14:16:32.272Z,33.70
2022-08-22T14:19:12.897Z,33.70
2022-08-22T14:21:50.841Z,32.70
2022-08-22T14:24:38.916Z,32.10
2022-08-22T14:27:16.121Z,29.80
2022-08-22T14:29:52.289Z,31.70
2022-08-22T14:32:19.345Z,31.00
2022-08-22T14:35:21.522Z,31.60
2022-08-22T14:37:55.255Z,32.10
2022-08-22T14:40:28.383Z,32.40
2022-08-22T14:42:58.491Z,31.10
2022-08-22T14:45:30.582Z,31.10
2022-08-22T14:48:30.161Z,30.80
2022-08-22T14:51:18.111Z,31.30
2022-08-22T14:53:50.005Z,30.40
2022-08-22T14:56:24.808Z,30.20
2022-08-22T14:58:59.655Z,30.50
2022-08-22T15:01:32.704Z,30.80
2022-08-22T15:04:02.855Z,30.80
2022-08-22T15:06:48.110Z,30.90
2022-08-22T15:09:40.393Z,30.70
2022-08-22T15:12:30.734Z,30.40
2022-08-22T15:15:02.027Z,30.40
2022-08-22T15:17:44.370Z,30.40
2022-08-22T15:20:22.769Z,30.10
2022-08-22T15:22:59.084Z,30.20
2022-08-22T15:25:36.658Z,30.00
2022-08-22T15:28:20.249Z,30.50
2022-08-22T15:31:09.640Z,30.50
2022-08-22T15:33:43.486Z,30.00
2022-08-22T15:36:17.286Z,30.20
2022-08-22T15:38:51.059Z,31.50
2022-08-22T15:41:36.972Z,31.70
2022-08-22T15:44:32.380Z,32.00
2022-08-22T15:47:10.823Z,31.00
2022-08-22T15:50:05.574Z,31.70
2022-08-22T15:52:59.118Z,31.60
2022-08-22T15:55:34.392Z,31.20
2022-08-22T15:58:20.856Z,30.70
2022-08-22T16:01:20.548Z,30.70
2022-08-22T16:04:04.838Z,31.80
2022-08-22T16:06:53.396Z,31.20
2022-08-22T16:09:29.454Z,30.80
2022-08-22T16:12:00.319Z,30.90
2022-08-22T16:14:36.126Z,31.20
2022-08-22T16:17:08.155Z,30.80
2022-08-22T16:19:35.836Z,29.80
2022-08-22T16:22:06.590Z,30.00
2022-08-22T16:24:55.065Z,29.60
2022-08-22T16:27:26.049Z,30.50
2022-08-22T16:30:05.406Z,30.60
2022-08-22T16:32:33.447Z,31.00
2022-08-22T16:35:00.292Z,31.00
2022-08-22T16:37:43.626Z,31.40
2022-08-22T16:40:20.784Z,32.40
2022-08-22T16:42:52.912Z,31.30
2022-08-22T16:45:29.881Z,31.10
2022-08-22T16:47:58.519Z,31.70
2022-08-22T16:50:32.729Z,33.50
2022-08-22T16:53:31.432Z,34.80
2022-08-22T16:56:31.783Z,35.90
2022-08-22T16:59:22.457Z,37.20
2022-08-22T17:02:02.362Z,38.20
2022-08-22T17:04:32.301Z,38.70
2022-08-22T20:30:59.463Z,61.50
2022-08-22T20:33:46.733Z,56.80
2022-08-22T20:36:27.541Z,56.20
2022-08-22T20:39:16.785Z,56.00
2022-08-22T20:41:49.665Z,55.60
2022-08-22T20:44:33.346Z,55.50
2022-08-22T20:47:14.001Z,55.10
2022-08-22T20:49:58.473Z,55.00
2022-08-22T20:52:34.068Z,54.90
2022-08-22T20:55:06.499Z,54.90
2022-08-22T20:57:36.278Z,54.80
2022-08-22T21:00:11.098Z,54.40
2022-08-22T21:02:46.389Z,54.60
2022-08-22T21:05:13.453Z,54.50
2022-08-22T21:07:43.746Z,54.40
2022-08-22T21:10:34.839Z,54.60
2022-08-22T21:13:02.910Z,55.50
2022-08-22T21:15:36.476Z,55.90
2022-08-22T21:18:03.991Z,56.20
2022-08-22T21:20:35.504Z,56.50
2022-08-22T21:23:08.993Z,56.70
2022-08-22T21:26:10.064Z,56.80
2022-08-22T21:28:53.207Z,57.30
2022-08-22T21:31:23.752Z,57.10
2022-08-22T21:33:53.833Z,56.70
2022-08-22T21:36:23.959Z,56.70
2022-08-22T21:39:16.960Z,56.40
2022-08-22T21:41:49.661Z,56.20
2022-08-22T21:44:28.380Z,55.90
2022-08-22T21:46:56.338Z,55.80
2022-08-22T21:49:26.249Z,55.10
2022-08-22T21:51:53.591Z,55.00
2022-08-22T21:54:29.403Z,54.60
2022-08-22T21:56:57.734Z,53.80
2022-08-22T21:59:50.534Z,53.60
2022-08-22T22:02:31.286Z,53.60
2022-08-22T22:05:03.820Z,54.20
2022-08-22T22:07:36.383Z,53.10
2022-08-22T22:10:04.209Z,52.50
2022-08-22T22:12:31.923Z,51.60
2022-08-22T22:14:58.979Z,51.20
2022-08-22T22:17:25.913Z,50.70
2022-08-22T22:19:52.882Z,50.50
2022-08-22T22:22:21.407Z,50.50
2022-08-22T22:24:48.292Z,50.30
2022-08-22T22:27:17.153Z,50.20
2022-08-22T22:29:44.279Z,50.20
2022-08-22T22:32:11.190Z,50.60
2022-08-22T22:34:39.151Z,50.60
2022-08-22T22:37:08.372Z,51.00
2022-08-22T22:39:36.390Z,50.80
2022-08-22T22:42:03.752Z,50.80
2022-08-22T22:44:31.211Z,50.80
2022-08-22T22:46:58.990Z,50.80
2022-08-22T22:49:25.849Z,50.80
2022-08-22T22:51:52.725Z,50.80
2022-08-22T22:54:19.595Z,50.80
2022-08-22T22:56:54.619Z,50.70
2022-08-22T22:59:24.648Z,50.20
2022-08-22T23:02:15.012Z,50.60
2022-08-22T23:04:44.712Z,51.90
2022-08-22T23:07:14.723Z,53.20
2022-08-22T23:09:44.937Z,54.60
2022-08-22T23:12:13.947Z,55.30
2022-08-22T23:14:41.137Z,55.90
2022-08-22T23:17:08.195Z,56.50
2022-08-22T23:19:35.578Z,56.90
2022-08-22T23:22:02.429Z,56.80
2022-08-22T23:24:31.218Z,56.80
2022-08-22T23:26:58.865Z,56.80
2022-08-22T23:29:26.595Z,57.20
2022-08-22T23:31:59.441Z,57.70
2022-08-22T23:34:32.969Z,58.30
2022-08-22T23:37:02.477Z,58.80
2022-08-22T23:39:34.597Z,58.60
2022-08-22T23:42:02.337Z,56.00
2022-08-22T23:44:32.129Z,52.20
2022-08-22T23:47:00.420Z,52.10
2022-08-22T23:49:28.126Z,51.80
2022-08-22T23:51:55.210Z,51.00
2022-08-22T23:54:22.638Z,49.50
2022-08-22T23:56:55.613Z,49.70
2022-08-22T23:59:30.544Z,49.60
